Time;durP1;ratioP1;P1;durP2;ratioP2;P2;SDS_P1;SDS_P2;PMS_P1;PMS_P2;Temp;Humidity;BMP_temperature;BMP_pressure;BME280_temperature;BME280_humidity;BME280_pressure;Samples;Min_cycle;Max_cycle;Signal;HPM_P1;HPM_P2
2021/08/04 00:01:18;;;;;;;9.43;4.72;;;;;;;27.94;48.12;101566.01;1750478;81;21034;-48
2021/08/04 00:03:44;;;;;;;6.80;4.40;;;;;;;27.94;48.40;101568.20;1779463;80;21081;-48
2021/08/04 00:06:11;;;;;;;7.80;4.12;;;;;;;27.95;48.51;101571.22;1771065;80;20974;-48
2021/08/04 00:08:38;;;;;;;6.58;4.08;;;;;;;27.96;48.26;101568.96;1762351;80;21078;-48
2021/08/04 00:11:04;;;;;;;8.13;4.67;;;;;;;27.97;48.46;101569.78;1763230;80;21006;-47
2021/08/04 00:13:32;;;;;;;8.85;4.45;;;;;;;27.96;48.65;101576.13;1784523;80;21085;-48
2021/08/04 00:16:00;;;;;;;8.18;4.50;;;;;;;27.95;48.73;101576.58;1770555;80;21069;-48
2021/08/04 00:18:26;;;;;;;5.08;4.12;;;;;;;27.94;48.75;101584.73;1763087;80;21045;-48
2021/08/04 00:20:53;;;;;;;4.75;3.75;;;;;;;27.89;48.69;101572.20;1769177;80;20999;-48
2021/08/04 00:23:19;;;;;;;6.75;4.20;;;;;;;27.86;48.92;101571.12;1756241;80;20962;-48
2021/08/04 00:25:45;;;;;;;4.30;3.90;;;;;;;27.86;48.78;101571.12;1762454;80;20994;-48
2021/08/04 00:28:12;;;;;;;6.12;4.00;;;;;;;27.83;48.89;101566.02;1783470;80;21006;-48
2021/08/04 00:30:39;;;;;;;6.05;4.20;;;;;;;27.80;49.24;101566.28;1764022;80;21046;-48
2021/08/04 00:33:06;;;;;;;7.35;4.58;;;;;;;27.80;49.24;101566.28;1776719;80;21026;-48
2021/08/04 00:35:32;;;;;;;8.40;4.62;;;;;;;27.79;49.65;101561.89;1779960;80;21022;-48
2021/08/04 00:37:59;;;;;;;6.87;4.17;;;;;;;27.81;49.66;101558.61;1774364;80;21010;-48
2021/08/04 00:40:26;;;;;;;4.42;4.00;;;;;;;27.81;49.55;101557.27;1771278;80;21079;-48
2021/08/04 00:42:53;;;;;;;5.50;4.05;;;;;;;27.81;49.56;101555.45;1762285;80;21007;-48
2021/08/04 00:45:19;;;;;;;6.28;4.17;;;;;;;27.75;49.78;101555.09;1755652;80;21073;-48
2021/08/04 00:47:48;;;;;;;4.10;3.72;;;;;;;27.81;49.25;101554.59;1780336;80;21006;-48
2021/08/04 00:50:15;;;;;;;5.12;3.70;;;;;;;27.81;49.15;101555.45;1772401;80;21007;-48
2021/08/04 00:52:41;;;;;;;6.55;4.17;;;;;;;27.81;49.39;101559.46;1744015;80;20991;-48
2021/08/04 00:55:09;;;;;;;5.72;4.03;;;;;;;27.80;49.51;101566.28;1761445;80;21001;-47
2021/08/04 00:57:36;;;;;;;5.83;4.20;;;;;;;27.77;49.80;101567.38;1764263;80;21551;-48
2021/08/04 01:00:06;;;;;;;5.72;4.28;;;;;;;27.75;50.01;101565.79;1778402;80;21142;-48
2021/08/04 01:02:43;;;;;;;5.33;4.35;;;;;;;27.73;50.30;101565.06;1740423;81;20987;-48
2021/08/04 01:05:19;;;;;;;3.85;3.37;;;;;;;27.70;50.58;101569.34;1769181;80;21487;-48
2021/08/04 01:07:55;;;;;;;5.75;4.30;;;;;;;27.67;50.89;101578.92;1755004;80;21026;-48
2021/08/04 01:10:31;;;;;;;4.75;3.90;;;;;;;27.66;51.09;101579.88;1721225;81;21073;-48
2021/08/04 01:13:11;;;;;;;8.03;4.00;;;;;;;27.65;51.32;101570.18;1729882;81;20993;-48
2021/08/04 01:16:07;;;;;;;4.12;3.72;;;;;;;27.63;51.43;101568.11;1734121;81;21074;-49
2021/08/04 01:18:47;;;;;;;5.03;4.22;;;;;;;27.61;51.72;101568.72;1735377;81;21045;-48
2021/08/04 01:21:13;;;;;;;7.45;4.17;;;;;;;27.58;51.98;101568.95;1736623;81;20965;-48
2021/08/04 01:23:56;;;;;;;7.65;4.28;;;;;;;27.60;52.19;101573.69;1728466;81;21517;-48
2021/08/04 01:26:38;;;;;;;4.25;3.85;;;;;;;27.61;52.50;101574.08;1720207;81;21005;-48
2021/08/04 01:29:09;;;;;;;5.33;4.50;;;;;;;27.62;52.61;101570.41;1720256;83;21085;-48
2021/08/04 01:31:36;;;;;;;4.95;4.40;;;;;;;27.62;52.58;101573.08;1710328;83;21035;-48
2021/08/04 01:34:03;;;;;;;5.08;4.20;;;;;;;27.63;52.92;101577.47;1666550;83;21140;-48
2021/08/04 01:36:30;;;;;;;4.58;4.15;;;;;;;27.63;52.92;101577.47;1708809;83;21458;-48
2021/08/04 01:38:58;;;;;;;5.10;4.22;;;;;;;27.64;52.80;101570.66;1715519;82;21577;-48
2021/08/04 01:41:26;;;;;;;6.08;4.00;;;;;;;27.66;53.15;101570.52;1704671;82;21048;-48
2021/08/04 01:43:53;;;;;;;4.90;3.85;;;;;;;27.68;53.21;101570.77;1706978;83;21035;-48
2021/08/04 01:46:20;;;;;;;4.60;4.20;;;;;;;27.67;53.14;101566.41;1703071;83;21016;-48
2021/08/04 01:48:48;;;;;;;4.70;3.90;;;;;;;27.66;53.31;101554.00;1720557;83;21554;-48
2021/08/04 01:51:17;;;;;;;5.75;4.25;;;;;;;27.69;53.26;101563.13;1709908;83;21504;-48
2021/08/04 01:53:46;;;;;;;5.28;4.33;;;;;;;27.70;53.34;101557.30;1720674;83;21084;-48
2021/08/04 01:56:14;;;;;;;5.12;4.25;;;;;;;27.69;53.44;101556.45;1715125;83;21014;-48
2021/08/04 01:58:42;;;;;;;4.67;4.25;;;;;;;27.69;53.44;101556.45;1712328;83;21521;-48
2021/08/04 02:01:10;;;;;;;4.60;3.80;;;;;;;27.70;53.45;101562.66;1719505;83;21581;-48
2021/08/04 02:03:38;;;;;;;4.92;3.55;;;;;;;27.70;53.56;101572.02;1706000;83;21039;-49
2021/08/04 02:06:28;;;;;;;5.33;3.80;;;;;;;27.70;53.66;101572.02;1714054;83;21014;-48
2021/08/04 02:09:27;;;;;;;4.97;3.85;;;;;;;27.70;53.86;101570.67;1670585;85;21561;-48
2021/08/04 02:12:06;;;;;;;6.40;4.15;;;;;;;27.69;53.80;101570.30;1604328;88;21069;-48
2021/08/04 02:15:03;;;;;;;9.03;3.60;;;;;;;27.70;53.78;101573.34;1578762;90;21118;-48
2021/08/04 02:17:36;;;;;;;5.90;3.60;;;;;;;27.69;54.18;101568.95;1576224;90;22242;-48
2021/08/04 02:20:09;;;;;;;4.78;3.95;;;;;;;27.69;54.18;101568.95;1556685;91;21073;-48
2021/08/04 02:22:58;;;;;;;5.72;4.05;;;;;;;27.67;53.91;101573.58;1575946;90;21062;-48
2021/08/04 02:25:44;;;;;;;4.90;4.33;;;;;;;27.67;53.91;101573.58;1595768;88;21090;-48
2021/08/04 02:28:21;;;;;;;4.60;4.10;;;;;;;27.69;54.11;101574.31;1630426;88;21110;-48
2021/08/04 02:30:49;;;;;;;8.48;4.60;;;;;;;27.68;54.18;101581.95;1628638;88;21054;-48
2021/08/04 02:33:16;;;;;;;9.30;5.25;;;;;;;27.68;54.18;101581.95;1627668;88;21052;-48
2021/08/04 02:35:42;;;;;;;8.25;5.08;;;;;;;27.67;54.30;101589.63;1622670;87;21058;-48
2021/08/04 02:38:09;;;;;;;6.15;5.17;;;;;;;27.66;54.12;101587.91;1627503;87;21177;-48
2021/08/04 02:40:36;;;;;;;7.12;5.00;;;;;;;27.66;54.12;101587.91;1630300;87;21089;-48
2021/08/04 02:43:03;;;;;;;9.25;5.42;;;;;;;27.64;54.15;101587.18;1673544;84;21529;-48
2021/08/04 02:45:30;;;;;;;6.00;4.45;;;;;;;27.65;54.13;101588.90;1682592;84;21082;-48
2021/08/04 02:47:57;;;;;;;6.42;5.00;;;;;;;27.63;54.28;101594.38;1678560;85;21491;-48
2021/08/04 02:50:24;;;;;;;5.75;4.83;;;;;;;27.64;54.46;101596.53;1688308;84;21231;-48
2021/08/04 02:52:51;;;;;;;6.40;4.95;;;;;;;27.63;54.53;101588.17;1733987;80;21039;-48
2021/08/04 02:55:19;;;;;;;7.55;5.55;;;;;;;27.63;54.44;101589.50;1757704;80;21019;-48
2021/08/04 02:57:45;;;;;;;9.48;5.20;;;;;;;27.62;54.41;101587.31;1767476;80;21011;-48
2021/08/04 03:00:15;;;;;;;7.35;5.35;;;;;;;27.62;54.43;101589.13;1777909;80;22431;-48
2021/08/04 03:02:43;;;;;;;6.47;5.25;;;;;;;27.61;54.61;101586.10;1773385;80;21001;-48
2021/08/04 03:05:11;;;;;;;8.75;4.90;;;;;;;27.61;54.61;101586.10;1774938;80;21027;-48
2021/08/04 03:07:38;;;;;;;9.80;5.05;;;;;;;27.60;54.70;101587.92;1767914;80;21041;-48
2021/08/04 03:10:06;;;;;;;12.68;5.42;;;;;;;27.59;54.64;101595.59;1772118;80;21023;-49
2021/08/04 03:12:35;;;;;;;7.80;4.97;;;;;;;27.58;54.61;101595.21;1780575;80;20990;-48
2021/08/04 03:15:01;;;;;;;6.22;5.17;;;;;;;27.56;54.62;101598.97;1730500;81;20990;-48
2021/08/04 03:17:28;;;;;;;8.05;5.72;;;;;;;27.56;54.72;101598.97;1758130;81;21029;-48
2021/08/04 03:19:56;;;;;;;10.08;4.92;;;;;;;27.55;54.76;101598.63;1751727;80;20999;-48
2021/08/04 03:22:24;;;;;;;7.03;4.90;;;;;;;27.57;54.72;101602.03;1765753;80;21160;-48
2021/08/04 03:24:50;;;;;;;6.42;4.60;;;;;;;27.56;54.62;101606.52;1780156;80;21045;-48
2021/08/04 03:27:17;;;;;;;5.75;4.60;;;;;;;27.56;54.43;101608.33;1784348;80;20999;-48
2021/08/04 03:29:43;;;;;;;6.33;4.65;;;;;;;27.57;54.44;101615.39;1769336;80;21010;-48
2021/08/04 03:32:10;;;;;;;6.35;4.45;;;;;;;27.56;54.43;101612.34;1765413;80;21014;-48
2021/08/04 03:34:37;;;;;;;6.65;4.45;;;;;;;27.56;54.33;101608.33;1763263;80;21029;-48
2021/08/04 03:37:06;;;;;;;7.80;4.12;;;;;;;27.57;54.21;101614.06;1776381;80;21573;-48
2021/08/04 03:39:33;;;;;;;5.12;3.80;;;;;;;27.60;54.28;101618.66;1776519;80;21093;-48
2021/08/04 03:42:00;;;;;;;5.50;4.10;;;;;;;27.70;54.19;101626.32;1770283;80;21062;-48
2021/08/04 03:44:27;;;;;;;6.65;4.00;;;;;;;27.94;53.91;101626.20;1768309;80;21140;-48
2021/08/04 03:46:55;;;;;;;8.10;4.35;;;;;;;28.29;53.02;101625.55;1771320;80;21062;-48
2021/08/04 03:49:22;;;;;;;8.33;4.55;;;;;;;28.67;52.12;101626.41;1773623;80;21003;-48
2021/08/04 03:51:49;;;;;;;5.15;4.08;;;;;;;29.03;51.48;101627.82;1774307;80;21047;-48
2021/08/04 03:54:16;;;;;;;6.60;4.45;;;;;;;29.41;50.51;101628.08;1760921;80;21491;-48
2021/08/04 03:56:43;;;;;;;6.90;5.37;;;;;;;29.70;49.42;101633.09;1762530;80;21058;-48
2021/08/04 03:59:10;;;;;;;7.85;4.10;;;;;;;29.86;48.87;101638.86;1774338;80;20998;-48
2021/08/04 04:01:37;;;;;;;5.03;4.53;;;;;;;29.87;48.53;101628.95;1760882;80;21478;-48
2021/08/04 04:04:04;;;;;;;6.33;4.28;;;;;;;29.80;48.62;101640.71;1760495;80;20976;-48
2021/08/04 04:06:30;;;;;;;5.40;4.12;;;;;;;29.69;48.71;101640.80;1762849;80;20984;-48
2021/08/04 04:08:59;;;;;;;10.93;5.53;;;;;;;29.55;49.02;101642.50;1756417;80;21487;-48
2021/08/04 04:11:26;;;;;;;7.22;4.85;;;;;;;29.40;49.29;101650.04;1767203;80;21145;-48
2021/08/04 04:13:53;;;;;;;9.93;4.45;;;;;;;29.26;49.61;101646.84;1761450;80;21031;-48
2021/08/04 04:16:20;;;;;;;7.70;5.62;;;;;;;29.14;49.82;101661.27;1782292;80;21561;-48
2021/08/04 04:18:47;;;;;;;10.05;4.53;;;;;;;29.02;50.18;101655.61;1763068;80;21059;-48
2021/08/04 04:21:13;;;;;;;5.92;4.22;;;;;;;28.90;50.54;101661.50;1758156;80;21022;-49
2021/08/04 04:23:40;;;;;;;9.50;4.65;;;;;;;28.81;50.87;101649.72;1763472;80;21043;-48
2021/08/04 04:26:07;;;;;;;6.50;4.30;;;;;;;28.74;51.19;101659.27;1769548;80;21104;-48
2021/08/04 04:28:33;;;;;;;4.85;4.08;;;;;;;28.68;51.59;101656.25;1772866;80;21517;-48
2021/08/04 04:31:00;;;;;;;5.20;4.20;;;;;;;28.63;51.78;101655.77;1773087;80;21029;-48
2021/08/04 04:33:27;;;;;;;4.80;4.00;;;;;;;28.61;52.08;101658.58;1759891;80;21486;-48
2021/08/04 04:35:55;;;;;;;6.65;3.92;;;;;;;28.57;52.30;101653.59;1758090;80;21030;-47
2021/08/04 04:38:21;;;;;;;6.87;4.92;;;;;;;28.54;52.52;101654.66;1767660;80;21014;-47
2021/08/04 04:40:49;;;;;;;6.15;4.20;;;;;;;28.53;52.81;101650.30;1763611;80;21034;-48
2021/08/04 04:43:15;;;;;;;6.75;4.40;;;;;;;28.52;52.96;101659.29;1751839;80;21495;-48
2021/08/04 04:45:42;;;;;;;8.15;4.65;;;;;;;28.50;53.04;101659.91;1756869;80;21008;-48
2021/08/04 04:48:09;;;;;;;7.75;4.33;;;;;;;28.49;53.33;101659.56;1781351;80;21026;-48
2021/08/04 04:50:35;;;;;;;4.50;4.10;;;;;;;28.49;53.46;101660.04;1785015;80;21006;-48
2021/08/04 04:53:02;;;;;;;7.50;3.95;;;;;;;28.48;53.57;101658.36;1769476;80;20978;-48
2021/08/04 04:55:29;;;;;;;9.65;3.92;;;;;;;28.50;53.77;101658.57;1777687;80;21029;-48
2021/08/04 04:57:55;;;;;;;7.50;4.30;;;;;;;28.51;53.92;101654.93;1765902;80;21066;-48
2021/08/04 05:00:22;;;;;;;8.08;3.87;;;;;;;28.53;54.07;101662.34;1758157;80;21060;-48
2021/08/04 05:02:49;;;;;;;3.72;3.42;;;;;;;28.55;54.28;101662.21;1763910;80;20999;-48
2021/08/04 05:05:15;;;;;;;7.70;3.80;;;;;;;28.57;54.40;101665.16;1756656;80;21050;-48
2021/08/04 05:07:42;;;;;;;5.00;3.70;;;;;;;28.60;54.48;101671.63;1767662;80;21490;-48
2021/08/04 05:10:11;;;;;;;6.87;3.92;;;;;;;28.62;54.54;101665.65;1760493;80;21066;-49
2021/08/04 05:12:37;;;;;;;6.78;3.90;;;;;;;28.66;54.71;101667.09;1777482;80;21017;-49
2021/08/04 05:15:06;;;;;;;4.78;3.90;;;;;;;28.68;54.82;101669.64;1769316;80;21088;-48
2021/08/04 05:17:33;;;;;;;4.60;3.50;;;;;;;28.70;54.87;101673.90;1762016;80;21517;-49
2021/08/04 05:19:59;;;;;;;5.90;3.47;;;;;;;28.72;54.78;101676.44;1767889;80;21011;-49
2021/08/04 05:22:26;;;;;;;4.05;3.33;;;;;;;28.76;54.79;101684.09;1778796;80;21053;-48
2021/08/04 05:24:53;;;;;;;3.37;3.08;;;;;;;28.80;54.62;101688.22;1758287;80;21004;-48
2021/08/04 05:27:19;;;;;;;8.00;3.00;;;;;;;28.86;54.42;101694.41;1771503;80;21052;-48
2021/08/04 05:29:46;;;;;;;3.25;2.95;;;;;;;28.90;53.84;101687.81;1774609;80;21053;-48
2021/08/04 05:32:13;;;;;;;3.42;2.72;;;;;;;28.95;53.54;101691.45;1757492;80;21021;-48
2021/08/04 05:34:39;;;;;;;3.60;3.05;;;;;;;29.01;53.47;101682.03;1750407;80;21029;-48
2021/08/04 05:37:08;;;;;;;4.05;3.15;;;;;;;29.07;53.40;101686.88;1761344;80;20991;-48
2021/08/04 05:39:34;;;;;;;6.08;3.40;;;;;;;29.20;53.27;101685.76;1765337;80;21011;-48
2021/08/04 05:42:01;;;;;;;5.10;4.42;;;;;;;29.41;52.86;101685.72;1771126;80;21498;-49
2021/08/04 05:44:27;;;;;;;3.95;3.20;;;;;;;29.67;52.23;101687.88;1749965;81;21043;-50
2021/08/04 05:46:54;;;;;;;4.92;2.87;;;;;;;29.92;51.19;101686.61;1749109;80;21089;-49
2021/08/04 05:49:21;;;;;;;5.62;3.00;;;;;;;30.08;50.72;101688.30;1739077;80;21010;-50
2021/08/04 05:51:49;;;;;;;4.83;3.20;;;;;;;30.19;50.30;101686.83;1762060;80;21471;-49
2021/08/04 05:54:16;;;;;;;4.50;2.72;;;;;;;30.27;49.96;101687.02;1742543;80;20979;-48
2021/08/04 05:56:42;;;;;;;3.08;2.75;;;;;;;30.33;49.43;101688.33;1754572;80;21522;-49
2021/08/04 05:59:15;;;;;;;5.97;2.72;;;;;;;30.36;48.95;101689.38;1750561;80;21006;-49
2021/08/04 06:01:43;;;;;;;4.42;2.40;;;;;;;30.38;48.96;101689.59;1741422;80;21034;-49
2021/08/04 06:04:09;;;;;;;6.92;2.77;;;;;;;30.41;48.70;101693.85;1716082;81;21814;-50
2021/08/04 06:06:36;;;;;;;3.25;2.60;;;;;;;30.45;48.60;101694.79;1752232;80;21055;-50
2021/08/04 06:09:03;;;;;;;4.85;2.62;;;;;;;30.48;48.52;101695.84;1748834;80;21126;-50
2021/08/04 06:11:30;;;;;;;5.95;4.00;;;;;;;30.50;48.51;101696.55;1740220;80;21101;-50
2021/08/04 06:13:57;;;;;;;3.35;2.50;;;;;;;30.47;48.65;101694.16;1745384;80;21031;-49
2021/08/04 06:16:25;;;;;;;4.60;2.87;;;;;;;30.48;48.66;101702.55;1750389;80;21093;-48
2021/08/04 06:18:53;;;;;;;12.68;3.67;;;;;;;30.47;48.53;101699.52;1752082;80;21387;-49
2021/08/04 06:21:20;;;;;;;5.10;2.50;;;;;;;30.47;48.39;101697.33;1756979;80;21022;-50
2021/08/04 06:23:48;;;;;;;6.83;2.37;;;;;;;30.47;48.34;101699.52;1755573;80;21482;-49
2021/08/04 06:26:15;;;;;;;4.90;2.70;;;;;;;30.47;48.30;101704.90;1772445;80;20935;-49
2021/08/04 06:28:43;;;;;;;3.67;2.60;;;;;;;30.49;48.44;101708.30;1766528;80;20983;-49
2021/08/04 06:31:10;;;;;;;6.25;4.53;;;;;;;30.51;48.40;101710.34;1750044;80;21013;-48
2021/08/04 06:33:37;;;;;;;5.00;3.40;;;;;;;30.53;48.16;101711.05;1758990;80;21499;-49
2021/08/04 06:36:04;;;;;;;6.45;4.65;;;;;;;30.56;47.97;101703.70;1758860;81;20979;-48
2021/08/04 06:38:30;;;;;;;5.67;2.95;;;;;;;30.59;48.19;101718.19;1737291;80;21049;-50
2021/08/04 06:40:57;;;;;;;4.00;2.58;;;;;;;30.59;47.68;101710.12;1711142;82;21514;-50
2021/08/04 06:43:24;;;;;;;3.27;2.42;;;;;;;30.60;47.48;101707.81;1688361;83;20980;-49
2021/08/04 06:45:52;;;;;;;6.50;3.00;;;;;;;30.61;47.62;101710.84;1686001;83;21075;-50
2021/08/04 06:48:20;;;;;;;3.15;2.58;;;;;;;30.51;47.63;101705.46;1677417;83;21932;-50
2021/08/04 06:50:48;;;;;;;3.00;2.60;;;;;;;30.41;47.67;101704.11;1689252;83;21027;-49
2021/08/04 06:53:15;;;;;;;2.98;2.50;;;;;;;30.53;47.48;101698.97;1693911;83;21584;-50
2021/08/04 06:55:42;;;;;;;6.42;2.70;;;;;;;30.53;47.47;101700.80;1684462;84;21020;-51
2021/08/04 06:58:09;;;;;;;5.75;2.77;;;;;;;30.52;48.18;101698.59;1700525;83;21071;-49
2021/08/04 07:00:36;;;;;;;3.52;3.22;;;;;;;30.52;48.46;101699.94;1701516;84;21569;-50
2021/08/04 07:03:03;;;;;;;3.12;2.62;;;;;;;30.54;48.39;101708.70;1683996;84;21468;-51
2021/08/04 07:05:31;;;;;;;3.98;3.40;;;;;;;30.57;48.09;101714.79;1699828;83;21077;-48
2021/08/04 07:07:57;;;;;;;3.37;2.85;;;;;;;30.58;47.76;101713.81;1698988;83;21026;-48
2021/08/04 07:10:24;;;;;;;3.67;3.00;;;;;;;30.58;47.87;101707.11;1668561;84;21108;-50
2021/08/04 07:12:50;;;;;;;4.90;2.77;;;;;;;30.61;47.99;101710.84;1690612;83;21000;-48
2021/08/04 07:15:17;;;;;;;5.00;2.90;;;;;;;30.63;47.57;101706.17;1746650;80;20988;-49
2021/08/04 07:17:49;;;;;;;6.70;3.33;;;;;;;30.67;47.80;101711.63;1734277;81;21280;-49
2021/08/04 07:20:19;;;;;;;4.37;3.10;;;;;;;30.69;47.64;101701.58;1751579;80;21529;-49
2021/08/04 07:22:46;;;;;;;3.15;2.85;;;;;;;30.74;47.56;101692.62;1738371;81;21010;-50
2021/08/04 07:25:13;;;;;;;4.75;2.77;;;;;;;30.79;47.43;101687.69;1725900;81;21522;-50
2021/08/04 07:27:40;;;;;;;4.42;2.90;;;;;;;30.84;47.40;101689.44;1747788;80;20971;-49
2021/08/04 07:30:10;;;;;;;2.92;2.60;;;;;;;30.88;47.35;101693.58;1761242;80;20995;-49
2021/08/04 07:32:37;;;;;;;10.38;3.45;;;;;;;30.91;46.96;101690.13;1739617;81;21520;-52
2021/08/04 07:35:04;;;;;;;4.70;3.20;;;;;;;30.93;46.97;101687.30;1741571;80;20989;-49
2021/08/04 07:37:31;;;;;;;4.72;2.90;;;;;;;30.93;47.17;101689.98;1770159;80;21027;-51
2021/08/04 07:39:59;;;;;;;5.75;3.33;;;;;;;30.94;47.15;101682.25;1753147;80;21005;-50
2021/08/04 07:42:26;;;;;;;6.20;3.50;;;;;;;30.96;47.34;101685.65;1742234;81;21111;-50
2021/08/04 07:44:55;;;;;;;3.58;3.05;;;;;;;30.99;47.15;101684.03;1752285;80;21525;-49
2021/08/04 07:47:22;;;;;;;3.62;3.30;;;;;;;31.02;46.80;101683.73;1755430;80;21515;-50
2021/08/04 07:49:49;;;;;;;6.47;3.45;;;;;;;31.01;46.48;101680.22;1742727;80;21069;-49
2021/08/04 07:55:16;;;;;;;4.62;3.22;;;;;;;31.06;46.38;101683.80;1677580;84;21078;-48
2021/08/04 07:57:45;;;;;;;4.55;2.80;;;;;;;31.06;46.59;101685.14;1675148;84;21491;-50
2021/08/04 08:00:13;;;;;;;3.47;3.17;;;;;;;31.05;46.35;101683.47;1670535;84;21010;-50
2021/08/04 08:02:42;;;;;;;4.22;2.80;;;;;;;31.05;46.71;101686.16;1669090;84;21057;-49
2021/08/04 08:05:10;;;;;;;8.60;3.20;;;;;;;31.07;46.46;101687.71;1668365;85;20988;-49
2021/08/04 08:07:39;;;;;;;4.35;2.95;;;;;;;31.09;46.32;101680.84;1680675;85;21006;-48
2021/08/04 08:10:10;;;;;;;6.28;2.70;;;;;;;31.10;46.56;101685.21;1677649;85;21526;-49
2021/08/04 08:12:38;;;;;;;3.40;3.10;;;;;;;31.11;46.16;101685.58;1674587;85;21014;-49
2021/08/04 08:15:06;;;;;;;4.37;2.95;;;;;;;31.10;46.10;101691.93;1678312;85;21510;-50
2021/08/04 08:17:33;;;;;;;5.20;3.10;;;;;;;31.09;46.38;101694.28;1671378;84;21016;-48
2021/08/04 08:20:00;;;;;;;3.17;2.87;;;;;;;31.10;46.74;101691.93;1673417;84;21003;-52
2021/08/04 08:22:27;;;;;;;3.80;2.85;;;;;;;31.11;46.75;101693.64;1677526;85;21161;-50
2021/08/04 08:24:54;;;;;;;2.80;2.50;;;;;;;31.09;46.79;101699.17;1662669;85;21076;-50
2021/08/04 08:27:21;;;;;;;4.33;2.50;;;;;;;31.12;46.57;101696.67;1686618;84;21528;-49
2021/08/04 08:29:48;;;;;;;3.05;2.75;;;;;;;31.14;46.99;101693.38;1733122;82;21042;-50
2021/08/04 08:32:15;;;;;;;3.65;2.35;;;;;;;31.19;46.73;101695.12;1689395;84;21014;-48
2021/08/04 08:34:42;;;;;;;11.55;2.83;;;;;;;31.23;46.72;101686.63;1696731;83;21056;-50
2021/08/04 08:37:08;;;;;;;4.12;2.62;;;;;;;31.28;46.64;101688.38;1699701;83;21010;-49
2021/08/04 08:39:35;;;;;;;7.08;2.58;;;;;;;31.34;46.50;101684.28;1694797;83;20983;-49
2021/08/04 08:42:04;;;;;;;7.53;2.80;;;;;;;31.40;46.68;101690.45;1690014;83;21030;-49
2021/08/04 08:44:33;;;;;;;4.72;2.95;;;;;;;31.43;45.69;101687.98;1685503;84;21108;-50
2021/08/04 08:47:07;;;;;;;3.20;2.90;;;;;;;31.43;45.59;101691.49;1694816;83;21038;-49
2021/08/04 08:49:33;;;;;;;6.78;3.30;;;;;;;31.44;45.89;101689.17;1672515;85;21038;-51
2021/08/04 08:52:00;;;;;;;8.53;2.98;;;;;;;31.47;46.57;101687.52;1674997;85;21109;-50
2021/08/04 08:54:27;;;;;;;2.62;2.33;;;;;;;31.52;46.30;101693.32;1677405;84;21050;-49
2021/08/04 08:56:54;;;;;;;2.70;2.42;;;;;;;31.53;46.09;101690.97;1670862;84;21034;-50
2021/08/04 08:59:22;;;;;;;3.65;2.75;;;;;;;31.53;45.57;101692.31;1678734;84;21036;-49
2021/08/04 09:01:51;;;;;;;12.45;3.40;;;;;;;31.51;45.92;101691.61;1673190;85;21015;-50
2021/08/04 09:04:18;;;;;;;3.10;2.80;;;;;;;31.48;46.32;101693.27;1675595;84;21011;-50
2021/08/04 09:06:53;;;;;;;3.67;2.90;;;;;;;31.45;45.91;101692.19;1674077;84;21003;-49
2021/08/04 09:09:23;;;;;;;13.75;6.85;;;;;;;31.40;45.78;101695.83;1674279;85;21007;-49
2021/08/04 09:11:57;;;;;;;7.80;7.00;;;;;;;31.37;46.16;101689.88;1676600;85;21554;-50
2021/08/04 09:14:29;;;;;;;4.55;3.40;;;;;;;31.34;46.43;101680.24;1672760;85;21029;-48
2021/08/04 09:17:08;;;;;;;7.53;6.92;;;;;;;31.33;47.08;101678.05;1669219;84;21022;-48
2021/08/04 09:19:39;;;;;;;5.72;4.58;;;;;;;31.36;47.07;101676.91;1678855;84;21015;-49
2021/08/04 09:22:13;;;;;;;3.80;2.95;;;;;;;31.40;46.99;101677.00;1661910;85;21032;-49
2021/08/04 09:25:10;;;;;;;5.35;3.00;;;;;;;31.43;46.70;101672.66;1667003;84;21469;-49
2021/08/04 09:27:50;;;;;;;3.95;2.80;;;;;;;31.47;46.57;101670.03;1642931;86;21181;-49
2021/08/04 09:30:32;;;;;;;3.87;2.93;;;;;;;31.52;46.54;101674.48;1645224;85;21090;-49
2021/08/04 09:35:52;;;;;;;;;;;;;;;31.60;46.63;101679.98;1593333;88;21600;-50
2021/08/04 09:38:19;;;;;;;8.28;7.47;;;;;;;31.62;46.25;101673.95;1580990;90;20123;-50
2021/08/04 09:40:48;;;;;;;5.05;3.55;;;;;;;31.63;46.25;101674.33;1576524;88;21026;-50
2021/08/04 09:43:25;;;;;;;3.50;2.72;;;;;;;31.65;45.95;101666.09;1608153;87;21121;-50
2021/08/04 09:45:54;;;;;;;3.45;2.50;;;;;;;31.65;46.07;101663.41;1583645;89;21062;-49
2021/08/04 09:48:25;;;;;;;4.17;2.90;;;;;;;31.66;45.64;101657.87;1615276;86;21577;-49
2021/08/04 09:50:57;;;;;;;3.33;2.83;;;;;;;31.69;45.64;101656.24;1588586;89;21112;-48
2021/08/04 09:53:32;;;;;;;3.37;2.92;;;;;;;31.73;45.35;101658.98;1572541;89;21575;-50
2021/08/04 09:56:17;;;;;;;5.65;3.45;;;;;;;31.75;45.46;101656.14;1492192;94;21161;-49
2021/08/04 09:58:47;;;;;;;3.67;3.30;;;;;;;31.75;45.17;101661.03;1508223;94;21628;-48
2021/08/04 10:01:17;;;;;;;5.15;3.50;;;;;;;31.71;45.13;101658.28;1533341;92;21641;-48
2021/08/04 10:04:04;;;;;;;5.10;4.05;;;;;;;31.67;45.13;101658.23;1494577;94;21113;-49
2021/08/04 10:06:33;;;;;;;8.00;4.97;;;;;;;31.63;45.94;101651.45;1491293;95;21076;-50
2021/08/04 10:09:00;;;;;;;7.67;3.83;;;;;;;31.63;46.02;101655.98;1488802;94;21181;-49
2021/08/04 10:11:28;;;;;;;5.47;4.53;;;;;;;31.62;45.64;101651.09;1448815;96;21701;-50
2021/08/04 10:13:56;;;;;;;4.12;3.37;;;;;;;31.61;45.60;101652.09;1459453;96;21080;-49
2021/08/04 10:16:25;;;;;;;3.90;3.22;;;;;;;31.61;45.50;101650.75;1456929;96;21621;-49
2021/08/04 10:18:51;;;;;;;4.65;3.30;;;;;;;31.62;45.18;101648.40;1478711;92;21124;-50
2021/08/04 10:21:19;;;;;;;3.70;3.20;;;;;;;31.64;45.40;101640.17;1523295;92;22448;-50
2021/08/04 10:23:50;;;;;;;4.87;3.72;;;;;;;31.66;45.31;101641.72;1474169;95;21116;-50
2021/08/04 10:26:17;;;;;;;7.58;4.08;;;;;;;31.68;45.42;101637.04;1455941;97;21214;-50
2021/08/04 10:28:45;;;;;;;7.72;4.50;;;;;;;31.71;45.40;101631.38;1453289;97;21694;-49
2021/08/04 10:31:16;;;;;;;12.25;8.20;;;;;;;31.73;45.16;101630.73;1472616;97;21162;-49
2021/08/04 10:33:43;;;;;;;7.60;6.58;;;;;;;31.74;45.22;101633.75;1497198;94;21094;-50
2021/08/04 10:36:12;;;;;;;8.05;7.22;;;;;;;31.76;45.80;101629.07;1524380;92;21086;-48
2021/08/04 10:38:48;;;;;;;54.63;42.65;;;;;;;31.77;45.48;101626.75;1530827;92;21084;-48
2021/08/04 10:41:17;;;;;;;70.62;54.48;;;;;;;31.76;45.70;101634.45;1543194;92;21129;-48
2021/08/04 10:43:56;;;;;;;28.05;21.25;;;;;;;31.73;45.23;101630.73;1537665;92;21145;-49
2021/08/04 10:46:36;;;;;;;16.70;13.45;;;;;;;31.70;45.33;101626.97;1516310;94;21554;-49
2021/08/04 10:49:12;;;;;;;11.20;8.68;;;;;;;31.69;45.60;101627.98;1573577;90;21079;-49
2021/08/04 10:51:45;;;;;;;11.55;10.25;;;;;;;31.70;45.75;101624.28;1553188;92;21093;-49
2021/08/04 10:54:14;;;;;;;8.48;7.22;;;;;;;31.73;46.07;101632.08;1453394;98;21168;-50
2021/08/04 10:56:49;;;;;;;11.30;10.13;;;;;;;31.76;45.40;101622.34;1462552;97;21068;-49
2021/08/04 10:59:29;;;;;;;8.18;6.37;;;;;;;31.76;45.39;101626.37;1452428;97;21166;-49
2021/08/04 11:02:07;;;;;;;9.65;7.87;;;;;;;31.75;45.69;101616.63;1505584;93;21669;-49
2021/08/04 11:04:40;;;;;;;8.53;5.22;;;;;;;31.72;46.18;101620.95;1496163;94;21122;-49
2021/08/04 11:07:15;;;;;;;5.50;5.00;;;;;;;31.74;46.55;101620.30;1496531;94;21558;-48
2021/08/04 11:09:48;;;;;;;8.33;4.90;;;;;;;31.77;46.40;101621.36;1514548;93;21083;-48
2021/08/04 11:12:22;;;;;;;7.92;4.72;;;;;;;31.79;46.61;101618.02;1516739;93;21089;-50
2021/08/04 11:14:55;;;;;;;25.25;22.15;;;;;;;31.82;46.18;101617.70;1518425;93;21145;-50
2021/08/04 11:17:31;;;;;;;37.38;33.40;;;;;;;31.85;46.49;101620.11;1517132;92;21081;-48
2021/08/04 11:20:06;;;;;;;23.15;20.75;;;;;;;31.89;45.96;101621.51;1479957;96;21146;-49
2021/08/04 11:22:40;;;;;;;9.55;8.05;;;;;;;31.93;46.31;101622.94;1484050;95;21133;-49
2021/08/04 11:25:31;;;;;;;6.42;4.17;;;;;;;31.98;46.36;101626.01;1512216;93;21108;-49
2021/08/04 11:28:06;;;;;;;7.55;4.05;;;;;;;32.01;45.71;101621.68;1511903;93;21107;-49
2021/08/04 11:30:36;;;;;;;5.37;3.90;;;;;;;32.08;45.59;101616.05;1513977;92;21366;-49
2021/08/04 11:33:27;;;;;;;8.95;5.97;;;;;;;32.13;45.07;101612.88;1510579;93;21029;-49
2021/08/04 11:36:13;;;;;;;12.13;10.78;;;;;;;32.17;45.03;101608.06;1533302;91;21628;-50
2021/08/04 11:38:57;;;;;;;7.25;6.53;;;;;;;32.21;44.57;101602.23;1573333;90;21054;-50
2021/08/04 11:41:34;;;;;;;7.10;6.05;;;;;;;32.24;44.15;101599.70;1575711;89;21681;-50